createdAt,value
2019-05-07T00:01:33.967Z,101965.36
2019-05-07T00:04:07.753Z,101968.70
2019-05-07T00:06:40.442Z,101963.05
2019-05-07T00:09:12.671Z,101963.09
2019-05-07T00:11:44.954Z,101962.72
2019-05-07T00:14:17.433Z,101962.33
2019-05-07T00:16:49.654Z,101958.97
2019-05-07T00:19:23.088Z,101958.79
2019-05-07T00:21:55.558Z,101959.00
2019-05-07T00:24:28.015Z,101955.72
2019-05-07T00:27:02.605Z,101952.76
2019-05-07T00:29:34.379Z,101954.27
2019-05-07T00:32:06.618Z,101952.78
2019-05-07T00:34:38.929Z,101950.48
2019-05-07T00:37:13.094Z,101948.02
2019-05-07T00:39:45.192Z,101943.13
2019-05-07T00:42:17.405Z,101948.63
2019-05-07T00:44:49.764Z,101943.84
2019-05-07T00:47:22.286Z,101950.18
2019-05-07T00:49:54.640Z,101941.73
2019-05-07T00:52:27.280Z,101942.70
2019-05-07T00:54:59.575Z,101939.61
2019-05-07T00:57:33.175Z,101940.91
2019-05-07T01:00:05.959Z,101945.30
2019-05-07T01:02:38.946Z,101942.63
2019-05-07T01:05:12.335Z,101942.91
2019-05-07T01:07:44.986Z,101943.70
2019-05-07T01:10:17.334Z,101947.70
2019-05-07T01:12:49.568Z,101944.51
2019-05-07T01:15:30.702Z,101942.68
2019-05-07T01:17:55.958Z,101947.58
2019-05-07T01:20:28.456Z,101947.58
2019-05-07T01:23:02.636Z,101944.69
2019-05-07T01:25:35.146Z,101949.16
2019-05-07T01:28:07.416Z,101941.67
2019-05-07T01:30:39.727Z,101944.64
2019-05-07T01:33:12.305Z,101946.73
2019-05-07T01:35:44.684Z,101947.09
2019-05-07T01:38:16.974Z,101945.48
2019-05-07T01:40:49.299Z,101946.13
2019-05-07T01:43:22.747Z,101938.56
2019-05-07T01:45:55.181Z,101944.09
2019-05-07T01:48:27.446Z,101939.09
2019-05-07T01:50:59.690Z,101943.59
2019-05-07T01:53:32.465Z,101942.91
2019-05-07T01:56:05.100Z,101941.37
2019-05-07T01:58:37.364Z,101931.94
2019-05-07T02:01:09.605Z,101930.53
2019-05-07T02:03:42.062Z,101934.23
2019-05-07T02:06:14.389Z,101935.56
2019-05-07T02:08:46.689Z,101932.39
2019-05-07T02:11:18.926Z,101932.61
2019-05-07T02:13:52.954Z,101931.92
2019-05-07T02:16:25.111Z,101929.25
2019-05-07T02:18:57.361Z,101931.73
2019-05-07T02:21:32.929Z,101929.65
2019-05-07T02:24:05.475Z,101935.30
2019-05-07T02:26:37.885Z,101929.83
2019-05-07T02:29:12.094Z,101927.53
2019-05-07T02:31:44.557Z,101923.17
2019-05-07T02:34:16.942Z,101915.61
2019-05-07T02:36:49.413Z,101916.72
2019-05-07T02:39:24.136Z,101914.34
2019-05-07T02:41:55.627Z,101917.22
2019-05-07T02:44:28.950Z,101911.34
2019-05-07T02:47:04.403Z,101915.05
2019-05-07T02:49:36.704Z,101915.25
2019-05-07T02:52:08.981Z,101914.67
2019-05-07T02:54:43.625Z,101905.70
2019-05-07T02:57:17.013Z,101906.73
2019-05-07T02:59:49.191Z,101909.81
2019-05-07T03:02:24.141Z,101908.33
2019-05-07T03:04:55.386Z,101908.94
2019-05-07T03:07:27.708Z,101916.23
2019-05-07T03:10:03.365Z,101919.29
2019-05-07T03:12:34.132Z,101903.36
2019-05-07T03:15:06.419Z,101919.48
2019-05-07T03:17:38.686Z,101906.53
2019-05-07T03:20:13.753Z,101907.44
2019-05-07T03:22:44.879Z,101903.66
2019-05-07T03:25:17.170Z,101900.28
2019-05-07T03:27:53.359Z,101906.25
2019-05-07T03:30:25.936Z,101905.75
2019-05-07T03:32:58.829Z,101908.73
2019-05-07T03:35:36.450Z,101902.57
2019-05-07T03:38:05.252Z,101907.25
2019-05-07T03:40:37.531Z,101899.48
2019-05-07T03:43:09.740Z,101903.75
2019-05-07T03:45:43.293Z,101897.28
2019-05-07T03:48:15.738Z,101893.51
2019-05-07T03:50:48.033Z,101890.32
2019-05-07T03:53:22.999Z,101895.98
2019-05-07T03:55:56.011Z,101894.27
2019-05-07T03:58:28.454Z,101896.22
2019-05-07T04:01:03.936Z,101890.44
2019-05-07T04:03:34.790Z,101893.40
2019-05-07T04:06:07.200Z,101891.90
2019-05-07T04:08:42.814Z,101886.94
2019-05-07T04:11:14.236Z,101892.38
2019-05-07T04:13:46.498Z,101887.37
2019-05-07T04:16:18.764Z,101889.77
2019-05-07T04:18:53.048Z,101882.62
2019-05-07T04:21:27.396Z,101886.25
2019-05-07T04:23:59.769Z,101882.98
2019-05-07T04:26:33.929Z,101878.34
2019-05-07T04:29:06.514Z,101869.21
2019-05-07T04:31:38.871Z,101870.45
2019-05-07T04:34:13.385Z,101876.98
2019-05-07T04:36:45.220Z,101873.03
2019-05-07T04:39:17.485Z,101867.37
2019-05-07T04:41:52.823Z,101871.20
2019-05-07T04:44:23.926Z,101868.48
2019-05-07T04:46:56.248Z,101865.31
2019-05-07T04:49:28.526Z,101866.14
2019-05-07T04:52:03.716Z,101860.81
2019-05-07T04:54:35.029Z,101865.17
2019-05-07T04:57:07.307Z,101858.61
2019-05-07T04:59:45.906Z,101862.97
2019-05-07T05:02:18.260Z,101861.44
2019-05-07T05:04:53.012Z,101856.20
2019-05-07T05:07:24.460Z,101860.42
2019-05-07T05:09:56.835Z,101854.89
2019-05-07T05:12:29.107Z,101858.08
2019-05-07T05:15:02.141Z,101853.42
2019-05-07T05:17:47.134Z,101858.30
2019-05-07T05:20:08.776Z,101861.20
2019-05-07T05:22:42.482Z,101861.95
2019-05-07T05:25:14.852Z,101858.64
2019-05-07T05:27:47.125Z,101854.92
2019-05-07T05:30:21.869Z,101853.89
2019-05-07T05:32:53.691Z,101857.70
2019-05-07T05:35:27.934Z,101856.56
2019-05-07T05:38:00.231Z,101856.37
2019-05-07T05:40:32.578Z,101858.31
2019-05-07T05:43:04.836Z,101862.32
2019-05-07T05:45:37.879Z,101865.31
2019-05-07T05:48:13.342Z,101859.14
2019-05-07T05:50:44.655Z,101865.14
2019-05-07T05:53:16.952Z,101860.13
2019-05-07T05:55:49.224Z,101862.62
2019-05-07T05:58:24.109Z,101859.59
2019-05-07T06:00:55.525Z,101856.97
2019-05-07T06:03:28.035Z,101849.84
2019-05-07T06:06:01.998Z,101846.48
2019-05-07T06:08:34.565Z,101842.78
2019-05-07T06:11:06.859Z,101840.88
2019-05-07T06:13:39.453Z,101847.21
2019-05-07T06:16:12.586Z,101848.79
2019-05-07T06:18:45.969Z,101853.14
2019-05-07T06:21:18.195Z,101854.84
2019-05-07T06:23:52.809Z,101848.98
2019-05-07T06:26:25.293Z,101848.91
2019-05-07T06:28:57.788Z,101853.09
2019-05-07T06:31:32.540Z,101850.48
2019-05-07T06:34:04.308Z,101845.75
2019-05-07T06:36:36.540Z,101853.17
2019-05-07T06:39:08.899Z,101844.33
2019-05-07T06:41:41.832Z,101850.84
2019-05-07T06:44:14.162Z,101852.05
2019-05-07T06:46:48.432Z,101850.91
2019-05-07T06:49:22.291Z,101856.33
2019-05-07T06:51:55.063Z,101854.20
2019-05-07T06:54:27.348Z,101848.59
2019-05-07T06:57:01.535Z,101851.94
2019-05-07T06:59:34.805Z,101848.16
2019-05-07T07:02:07.242Z,101848.94
2019-05-07T07:04:42.253Z,101846.23
2019-05-07T07:07:26.337Z,101847.57
2019-05-07T07:09:47.847Z,101846.41
2019-05-07T07:12:25.951Z,101850.08
2019-05-07T07:14:58.243Z,101850.92
2019-05-07T07:17:32.561Z,101843.87
2019-05-07T07:20:04.533Z,101839.77
2019-05-07T07:22:36.851Z,101844.45
2019-05-07T07:25:09.063Z,101844.63
2019-05-07T07:27:42.929Z,101842.84
2019-05-07T07:30:15.294Z,101843.06
2019-05-07T07:32:47.562Z,101837.80
2019-05-07T07:35:19.840Z,101837.63
2019-05-07T07:37:53.004Z,101839.75
2019-05-07T07:40:26.509Z,101841.65
2019-05-07T07:42:58.921Z,101835.22
2019-05-07T07:45:32.402Z,101836.22
2019-05-07T07:48:04.800Z,101833.77
2019-05-07T07:50:37.044Z,101833.98
2019-05-07T07:53:09.312Z,101834.78
2019-05-07T07:55:42.619Z,101834.85
2019-05-07T07:58:14.941Z,101831.13
2019-05-07T08:00:47.605Z,101830.55
2019-05-07T08:03:19.926Z,101835.75
2019-05-07T08:05:52.171Z,101825.59
2019-05-07T08:08:24.385Z,101835.87
2019-05-07T08:10:56.597Z,101823.75
2019-05-07T08:13:28.828Z,101822.25
2019-05-07T08:16:02.474Z,101822.48
2019-05-07T08:18:34.927Z,101815.61
2019-05-07T08:21:08.049Z,101815.98
2019-05-07T08:23:42.407Z,101816.30
2019-05-07T08:26:14.403Z,101809.21
2019-05-07T08:28:48.733Z,101808.38
2019-05-07T08:31:22.623Z,101812.05
2019-05-07T08:33:55.135Z,101809.45
2019-05-07T08:36:28.453Z,101811.66
2019-05-07T08:39:02.625Z,101810.21
2019-05-07T08:41:36.322Z,101805.69
2019-05-07T08:44:12.191Z,101805.69
2019-05-07T08:46:43.634Z,101802.81
2019-05-07T08:49:15.904Z,101800.57
2019-05-07T08:51:48.334Z,101807.94
2019-05-07T08:54:22.585Z,101798.42
2019-05-07T08:56:54.535Z,101791.89
2019-05-07T08:59:27.010Z,101783.98
2019-05-07T09:01:59.796Z,101788.44
2019-05-07T09:04:32.919Z,101783.49
2019-05-07T09:07:05.251Z,101781.19
2019-05-07T09:09:37.448Z,101779.93
2019-05-07T09:12:11.931Z,101770.54
2019-05-07T09:14:43.760Z,101766.55
2019-05-07T09:17:16.106Z,101766.00
2019-05-07T09:19:52.128Z,101769.53
2019-05-07T09:22:22.961Z,101761.92
2019-05-07T09:24:55.697Z,101760.20
2019-05-07T09:27:28.303Z,101758.91
2019-05-07T09:30:02.677Z,101758.16
2019-05-07T09:32:35.053Z,101755.45
2019-05-07T09:35:07.420Z,101754.98
2019-05-07T09:37:39.695Z,101756.30
2019-05-07T09:40:12.634Z,101746.97
2019-05-07T09:42:45.130Z,101750.31
2019-05-07T09:45:17.408Z,101739.44
2019-05-07T09:47:52.088Z,101741.28
2019-05-07T09:50:23.803Z,101741.47
2019-05-07T09:52:56.675Z,101737.55
2019-05-07T09:55:32.594Z,101733.19
2019-05-07T09:58:05.153Z,101735.61
2019-05-07T10:00:37.520Z,101734.11
2019-05-07T10:03:09.740Z,101728.70
2019-05-07T10:05:42.748Z,101728.91
2019-05-07T10:08:17.741Z,101723.08
2019-05-07T10:10:51.219Z,101720.92
2019-05-07T10:13:23.724Z,101721.51
2019-05-07T10:15:55.955Z,101720.04
2019-05-07T10:18:28.192Z,101702.85
2019-05-07T10:21:02.392Z,101703.64
2019-05-07T10:23:34.369Z,101704.96
2019-05-07T10:26:06.668Z,101711.70
2019-05-07T10:28:38.892Z,101695.77
2019-05-07T10:31:11.475Z,101699.90
2019-05-07T10:33:43.819Z,101696.62
2019-05-07T10:36:16.912Z,101701.96
2019-05-07T10:38:49.178Z,101695.53
2019-05-07T10:41:22.366Z,101696.23
2019-05-07T10:43:54.780Z,101694.61
2019-05-07T10:46:27.038Z,101693.73
2019-05-07T10:48:59.308Z,101692.59
2019-05-07T10:51:32.268Z,101695.63
2019-05-07T10:54:04.633Z,101689.95
2019-05-07T10:56:36.933Z,101684.20
2019-05-07T10:59:09.153Z,101679.21
2019-05-07T11:01:42.542Z,101676.27
2019-05-07T11:04:14.952Z,101674.75
2019-05-07T11:06:47.274Z,101670.66
2019-05-07T11:09:19.548Z,101669.25
2019-05-07T11:11:51.992Z,101659.84
2019-05-07T11:14:24.274Z,101664.41
2019-05-07T11:16:56.853Z,101663.33
2019-05-07T11:19:29.119Z,101664.93
2019-05-07T11:22:01.971Z,101657.85
2019-05-07T11:24:34.277Z,101654.90
2019-05-07T11:27:06.513Z,101657.95
2019-05-07T11:29:38.783Z,101652.38
2019-05-07T11:32:12.331Z,101652.37
2019-05-07T11:34:44.751Z,101646.61
2019-05-07T11:37:17.061Z,101640.91
2019-05-07T11:39:49.499Z,101644.76
2019-05-07T11:42:24.092Z,101640.53
2019-05-07T11:44:56.346Z,101640.80
2019-05-07T11:47:28.608Z,101638.67
2019-05-07T11:50:03.221Z,101637.13
2019-05-07T11:52:35.919Z,101632.44
2019-05-07T11:55:08.344Z,101625.25
2019-05-07T11:57:44.185Z,101623.50
2019-05-07T12:00:14.562Z,101625.42
2019-05-07T12:02:47.327Z,101621.69
2019-05-07T12:05:19.826Z,101623.66
2019-05-07T12:07:52.149Z,101624.97
2019-05-07T12:10:24.535Z,101620.14
2019-05-07T12:12:56.800Z,101621.83
2019-05-07T12:15:29.137Z,101614.82
2019-05-07T12:18:02.999Z,101607.03
2019-05-07T12:20:35.573Z,101607.02
2019-05-07T12:23:07.809Z,101607.38
2019-05-07T12:25:42.215Z,101604.98
2019-05-07T12:28:14.250Z,101608.16
2019-05-07T12:30:46.478Z,101606.39
2019-05-07T12:33:18.704Z,101602.16
2019-05-07T12:35:52.460Z,101605.12
2019-05-07T12:38:24.856Z,101595.31
2019-05-07T12:40:57.208Z,101597.92
2019-05-07T12:43:31.983Z,101597.06
2019-05-07T12:46:04.367Z,101590.60
2019-05-07T12:48:36.968Z,101591.05
2019-05-07T12:51:09.272Z,101597.80
2019-05-07T12:53:42.441Z,101597.95
2019-05-07T12:56:14.776Z,101596.14
2019-05-07T12:58:49.234Z,101593.67
2019-05-07T13:01:22.117Z,101591.27
2019-05-07T13:03:54.695Z,101590.08
2019-05-07T13:06:26.928Z,101589.39
2019-05-07T13:08:59.204Z,101586.22
2019-05-07T13:11:32.567Z,101585.25
2019-05-07T13:14:04.942Z,101589.11
2019-05-07T13:16:37.170Z,101584.69
2019-05-07T13:19:09.406Z,101580.05
2019-05-07T13:21:49.125Z,101580.75
2019-05-07T13:24:15.678Z,101576.09
2019-05-07T13:26:47.961Z,101573.98
2019-05-07T13:29:22.007Z,101570.20
2019-05-07T13:31:54.507Z,101569.37
2019-05-07T13:34:26.694Z,101556.75
2019-05-07T13:36:58.956Z,101557.28
2019-05-07T13:39:32.513Z,101564.72
2019-05-07T13:42:04.975Z,101559.33
2019-05-07T13:44:37.300Z,101568.27
2019-05-07T13:47:09.650Z,101554.02
2019-05-07T13:49:42.746Z,101553.49
2019-05-07T13:52:15.383Z,101546.87
2019-05-07T13:54:47.648Z,101541.48
2019-05-07T13:57:19.956Z,101536.22
2019-05-07T13:59:53.070Z,101537.43
2019-05-07T14:02:25.558Z,101530.78
2019-05-07T14:04:57.889Z,101529.91
2019-05-07T14:07:32.126Z,101523.68
2019-05-07T14:10:04.043Z,101513.89
2019-05-07T14:12:36.295Z,101513.02
2019-05-07T14:15:08.614Z,101520.55
2019-05-07T14:17:40.813Z,101509.59
2019-05-07T14:20:13.151Z,101502.83
2019-05-07T14:22:45.544Z,101507.49
2019-05-07T14:25:17.825Z,101513.12
2019-05-07T14:27:52.522Z,101506.41
2019-05-07T14:30:24.561Z,101516.70
2019-05-07T14:32:57.032Z,101515.37
2019-05-07T14:35:29.385Z,101507.87
2019-05-07T14:38:01.643Z,101507.55
2019-05-07T14:40:33.902Z,101500.41
2019-05-07T14:43:08.014Z,101497.56
2019-05-07T14:45:42.097Z,101499.46
2019-05-07T14:48:14.211Z,101493.14
2019-05-07T14:50:46.608Z,101491.05
2019-05-07T14:53:18.963Z,101488.77
2019-05-07T14:55:51.232Z,101485.71
2019-05-07T14:58:23.568Z,101484.64
2019-05-07T15:00:56.935Z,101479.02
2019-05-07T15:03:29.126Z,101471.14
2019-05-07T15:06:02.079Z,101469.70
2019-05-07T15:08:34.537Z,101472.94
2019-05-07T15:11:07.005Z,101478.08
2019-05-07T15:13:40.002Z,101472.78
2019-05-07T15:16:12.875Z,101471.89
2019-05-07T15:18:45.160Z,101463.09
2019-05-07T15:21:17.609Z,101461.20
2019-05-07T15:23:49.849Z,101457.92
2019-05-07T15:26:22.139Z,101458.04
2019-05-07T15:28:54.437Z,101454.42
2019-05-07T15:31:26.669Z,101465.55
2019-05-07T15:33:59.052Z,101453.63
2019-05-07T15:36:32.047Z,101446.81
2019-05-07T15:39:04.541Z,101449.05
2019-05-07T15:41:38.431Z,101442.17
2019-05-07T15:44:11.942Z,101440.23
2019-05-07T15:46:45.312Z,101439.02
2019-05-07T15:49:17.675Z,101438.50
2019-05-07T15:51:49.988Z,101439.63
2019-05-07T15:54:22.242Z,101429.33
2019-05-07T15:56:54.509Z,101428.38
2019-05-07T15:59:26.763Z,101426.26
2019-05-07T16:01:59.268Z,101424.63
2019-05-07T16:04:32.913Z,101420.47
2019-05-07T16:07:09.219Z,101416.58
2019-05-07T16:09:41.939Z,101414.70
2019-05-07T16:12:15.941Z,101406.39
2019-05-07T16:14:48.454Z,101407.46
2019-05-07T16:17:21.701Z,101408.51
2019-05-07T16:19:55.242Z,101401.08
2019-05-07T16:22:27.621Z,101403.05
2019-05-07T16:25:04.894Z,101395.47
2019-05-07T16:27:34.024Z,101397.20
2019-05-07T16:30:06.504Z,101391.30
2019-05-07T16:32:39.092Z,101392.11
2019-05-07T16:35:12.501Z,101389.98
2019-05-07T16:37:45.135Z,101387.61
2019-05-07T16:40:17.633Z,101387.37
2019-05-07T16:42:52.218Z,101383.02
2019-05-07T16:45:24.023Z,101377.02
2019-05-07T16:47:56.445Z,101377.03
2019-05-07T16:50:28.658Z,101384.09
2019-05-07T16:53:02.884Z,101377.06
2019-05-07T16:55:36.738Z,101369.79
2019-05-07T16:58:09.089Z,101370.65
2019-05-07T17:00:42.250Z,101370.39
2019-05-07T17:03:17.214Z,101362.26
2019-05-07T17:05:52.272Z,101365.40
2019-05-07T17:08:24.078Z,101362.31
2019-05-07T17:10:56.374Z,101361.33
2019-05-07T17:13:28.599Z,101364.84
2019-05-07T17:16:03.238Z,101356.16
2019-05-07T17:18:35.087Z,101352.95
2019-05-07T17:21:07.366Z,101358.75
2019-05-07T17:23:44.408Z,101356.45
2019-05-07T17:26:13.575Z,101354.27
2019-05-07T17:28:46.040Z,101343.09
2019-05-07T17:31:18.319Z,101339.92
2019-05-07T17:33:51.669Z,101331.42
2019-05-07T17:36:24.136Z,101336.72
2019-05-07T17:38:56.387Z,101349.09
2019-05-07T17:41:28.714Z,101336.73
2019-05-07T17:44:02.692Z,101337.59
2019-05-07T17:46:34.967Z,101334.06
2019-05-07T17:49:07.268Z,101336.95
2019-05-07T17:51:41.882Z,101326.59
2019-05-07T17:54:13.526Z,101325.06
2019-05-07T17:56:46.936Z,101320.96
2019-05-07T17:59:19.264Z,101322.48
2019-05-07T18:01:53.088Z,101316.29
2019-05-07T18:04:25.588Z,101322.83
2019-05-07T18:07:00.334Z,101320.25
2019-05-07T18:09:32.055Z,101312.56
2019-05-07T18:12:04.979Z,101308.03
2019-05-07T18:14:37.305Z,101304.67
2019-05-07T18:17:09.537Z,101303.06
2019-05-07T18:19:42.033Z,101299.70
2019-05-07T18:22:14.248Z,101299.09
2019-05-07T18:24:47.793Z,101297.30
2019-05-07T18:27:22.204Z,101294.26
2019-05-07T18:29:54.220Z,101295.10
2019-05-07T18:32:26.489Z,101296.75
2019-05-07T18:34:58.716Z,101293.61
2019-05-07T18:37:32.649Z,101298.06
2019-05-07T18:40:05.113Z,101296.34
2019-05-07T18:42:37.811Z,101295.93
2019-05-07T18:45:12.312Z,101299.91
2019-05-07T18:47:44.576Z,101290.69
2019-05-07T18:50:17.249Z,101289.62
2019-05-07T18:52:49.599Z,101296.33
2019-05-07T18:55:22.811Z,101300.17
2019-05-07T18:57:55.626Z,101292.09
2019-05-07T19:00:28.439Z,101286.73
2019-05-07T19:03:03.129Z,101287.69
2019-05-07T19:05:35.477Z,101285.52
2019-05-07T19:08:08.954Z,101284.20
2019-05-07T19:10:42.876Z,101284.30
2019-05-07T19:13:15.510Z,101294.03
2019-05-07T19:15:48.021Z,101289.88
2019-05-07T19:18:22.593Z,101290.22
2019-05-07T19:20:54.381Z,101289.66
2019-05-07T19:23:27.681Z,101294.41
2019-05-07T19:26:02.329Z,101291.88
2019-05-07T19:28:34.043Z,101292.08
2019-05-07T19:31:06.444Z,101289.23
2019-05-07T19:33:38.512Z,101291.64
2019-05-07T19:36:10.757Z,101289.60
2019-05-07T19:38:43.177Z,101289.19
2019-05-07T19:41:15.847Z,101290.91
2019-05-07T19:43:48.508Z,101293.05
2019-05-07T19:46:22.798Z,101290.36
2019-05-07T19:48:55.041Z,101288.47
2019-05-07T19:51:27.365Z,101282.88
2019-05-07T19:54:01.933Z,101282.41
2019-05-07T19:56:33.773Z,101293.41
2019-05-07T19:59:06.105Z,101285.95
2019-05-07T20:01:38.436Z,101279.51
2019-05-07T20:04:10.763Z,101274.43
2019-05-07T20:06:43.046Z,101269.85
2019-05-07T20:09:15.836Z,101262.66
2019-05-07T20:11:48.513Z,101255.06
2019-05-07T20:14:22.300Z,101243.54
2019-05-07T20:16:55.085Z,101236.80
2019-05-07T20:19:27.472Z,101237.91
2019-05-07T20:22:01.966Z,101236.42
2019-05-07T20:24:33.885Z,101237.50
2019-05-07T20:27:06.127Z,101235.11
2019-05-07T20:29:38.595Z,101231.07
2019-05-07T20:32:11.210Z,101226.52
2019-05-07T20:34:43.723Z,101223.34
2019-05-07T20:37:16.070Z,101226.73
2019-05-07T20:39:48.453Z,101221.42
2019-05-07T20:42:23.120Z,101211.72
2019-05-07T20:44:55.170Z,101208.12
2019-05-07T20:47:27.393Z,101209.83
2019-05-07T20:49:59.711Z,101210.63
2019-05-07T20:52:32.614Z,101208.81
2019-05-07T20:55:04.884Z,101209.54
2019-05-07T20:57:37.107Z,101208.48
2019-05-07T21:00:09.394Z,101211.81
2019-05-07T21:02:47.942Z,101201.70
2019-05-07T21:05:17.180Z,101201.56
2019-05-07T21:07:49.506Z,101205.81
2019-05-07T21:10:22.197Z,101200.19
2019-05-07T21:12:54.559Z,101193.27
2019-05-07T21:15:27.120Z,101189.77
2019-05-07T21:17:59.373Z,101185.34
2019-05-07T21:20:32.348Z,101179.61
2019-05-07T21:23:04.780Z,101175.64
2019-05-07T21:25:43.451Z,101175.64
2019-05-07T21:28:12.165Z,101167.81
2019-05-07T21:30:44.751Z,101166.89
2019-05-07T21:33:19.876Z,101165.45
2019-05-07T21:35:52.527Z,101157.63
2019-05-07T21:38:24.892Z,101154.00
2019-05-07T21:40:57.152Z,101159.53
2019-05-07T21:43:29.487Z,101165.59
2019-05-07T21:46:02.421Z,101159.59
2019-05-07T21:48:35.913Z,101142.23
2019-05-07T21:51:08.147Z,101141.83
2019-05-07T21:53:40.385Z,101132.23
2019-05-07T21:56:12.638Z,101125.55
2019-05-07T21:58:44.943Z,101127.12
2019-05-07T22:01:21.835Z,101129.25
2019-05-07T22:03:53.878Z,101116.60
2019-05-07T22:06:26.100Z,101109.95
2019-05-07T22:08:58.535Z,101112.94
2019-05-07T22:11:32.316Z,101105.50
2019-05-07T22:14:04.791Z,101106.84
2019-05-07T22:16:37.035Z,101109.13
2019-05-07T22:19:09.374Z,101105.80
2019-05-07T22:21:43.183Z,101111.11
2019-05-07T22:24:15.812Z,101108.16
2019-05-07T22:26:48.046Z,101107.30
2019-05-07T22:29:22.570Z,101096.06
2019-05-07T22:31:54.434Z,101089.61
2019-05-07T22:34:26.682Z,101085.22
2019-05-07T22:37:03.039Z,101085.13
2019-05-07T22:39:39.345Z,101074.06
2019-05-07T22:42:13.223Z,101068.17
2019-05-07T22:44:45.660Z,101067.87
2019-05-07T22:47:17.958Z,101064.11
2019-05-07T22:49:50.156Z,101054.79
2019-05-07T22:52:22.629Z,101055.03
2019-05-07T22:54:54.902Z,101055.89
2019-05-07T22:57:27.128Z,101049.24
2019-05-07T23:00:04.231Z,101045.78
2019-05-07T23:02:34.958Z,101039.30
2019-05-07T23:05:07.461Z,101035.98
2019-05-07T23:07:41.800Z,101033.06
2019-05-07T23:10:13.679Z,101026.48
2019-05-07T23:12:45.986Z,101024.64
2019-05-07T23:15:18.232Z,101025.70
2019-05-07T23:17:50.453Z,101026.08
2019-05-07T23:20:24.451Z,101023.83
2019-05-07T23:22:56.793Z,101009.06
2019-05-07T23:25:29.037Z,101006.08
2019-05-07T23:28:04.914Z,101004.47
2019-05-07T23:30:35.222Z,101004.98
2019-05-07T23:33:07.417Z,101006.41
2019-05-07T23:35:42.003Z,101007.81
2019-05-07T23:38:15.891Z,101006.20
2019-05-07T23:40:47.851Z,100998.01
2019-05-07T23:43:20.102Z,100994.58
2019-05-07T23:45:52.691Z,100992.45
2019-05-07T23:48:25.107Z,100990.26
2019-05-07T23:50:57.438Z,100991.56
2019-05-07T23:53:29.639Z,100992.86
2019-05-07T23:56:02.822Z,100992.55
2019-05-07T23:58:35.373Z,100984.02
